createdAt,value
2022-08-14T00:00:43.905Z,17.28
2022-08-14T00:01:54.887Z,17.30
2022-08-14T00:02:44.041Z,17.30
2022-08-14T00:03:43.783Z,17.20
2022-08-14T00:04:45.050Z,17.28
2022-08-14T00:05:44.413Z,17.22
2022-08-14T00:06:43.655Z,17.28
2022-08-14T00:07:43.618Z,17.23
2022-08-14T00:08:44.835Z,17.30
2022-08-14T00:10:02.578Z,17.28
2022-08-14T00:10:51.544Z,17.23
2022-08-14T00:11:43.529Z,17.23
2022-08-14T00:12:43.429Z,17.27
2022-08-14T00:13:43.363Z,17.27
2022-08-14T00:14:43.344Z,17.17
2022-08-14T00:15:44.623Z,17.20
2022-08-14T00:16:45.164Z,17.07
2022-08-14T00:17:48.197Z,17.01
2022-08-14T00:19:06.017Z,17.07
2022-08-14T00:19:43.116Z,17.01
2022-08-14T00:20:43.368Z,17.07
2022-08-14T00:21:43.028Z,17.12
2022-08-14T00:22:57.119Z,17.13
2022-08-14T00:23:42.967Z,17.14
2022-08-14T00:24:42.908Z,17.19
2022-08-14T00:25:42.966Z,17.19
2022-08-14T00:26:42.822Z,17.19
2022-08-14T00:27:42.782Z,17.24
2022-08-14T00:28:42.742Z,17.07
2022-08-14T00:29:43.026Z,17.16
2022-08-14T00:30:42.829Z,17.14
2022-08-14T00:31:45.714Z,17.19
2022-08-14T00:32:53.211Z,17.20
2022-08-14T00:33:52.532Z,17.14
2022-08-14T00:34:46.337Z,17.05
2022-08-14T00:36:34.066Z,17.02
2022-08-14T00:36:49.186Z,17.10
2022-08-14T00:37:42.365Z,16.99
2022-08-14T00:38:42.321Z,16.92
2022-08-14T00:39:42.620Z,16.91
2022-08-14T00:40:46.122Z,16.82
2022-08-14T00:41:42.448Z,16.83
2022-08-14T00:42:54.894Z,16.76
2022-08-14T00:43:43.201Z,16.76
2022-08-14T00:44:42.700Z,16.76
2022-08-14T00:45:42.029Z,16.72
2022-08-14T00:46:41.988Z,16.64
2022-08-14T00:47:43.275Z,16.73
2022-08-14T00:48:41.903Z,16.76
2022-08-14T00:49:43.090Z,16.65
2022-08-14T00:50:41.818Z,16.62
2022-08-14T00:51:41.780Z,16.64
2022-08-14T00:52:41.734Z,16.66
2022-08-14T00:53:43.118Z,16.77
2022-08-14T00:54:41.663Z,16.64
2022-08-14T00:55:41.609Z,16.66
2022-08-14T00:56:41.562Z,16.66
2022-08-14T00:57:41.525Z,16.69
2022-08-14T00:58:45.272Z,16.68
2022-08-14T00:59:41.490Z,16.65
2022-08-14T01:00:47.630Z,16.66
2022-08-14T01:01:41.455Z,16.58
2022-08-14T01:02:41.317Z,16.54
2022-08-14T01:03:42.278Z,16.58
2022-08-14T01:04:53.687Z,16.57
2022-08-14T01:05:41.748Z,16.44
2022-08-14T01:06:41.145Z,16.50
2022-08-14T01:07:50.394Z,16.41
2022-08-14T01:08:57.414Z,16.41
2022-08-14T01:09:41.019Z,16.39
2022-08-14T01:10:41.010Z,16.43
2022-08-14T01:11:40.935Z,16.34
2022-08-14T01:12:40.902Z,16.37
2022-08-14T01:13:42.899Z,16.36
2022-08-14T01:14:40.899Z,16.39
2022-08-14T01:15:57.809Z,16.39
2022-08-14T01:16:40.834Z,16.39
2022-08-14T01:17:45.337Z,16.32
2022-08-14T01:18:40.642Z,16.37
2022-08-14T01:19:41.262Z,16.44
2022-08-14T01:20:41.114Z,16.44
2022-08-14T01:21:46.988Z,16.41
2022-08-14T01:22:40.570Z,16.40
2022-08-14T01:23:46.463Z,16.41
2022-08-14T01:24:40.392Z,16.39
2022-08-14T01:25:40.347Z,16.41
2022-08-14T01:26:40.310Z,16.40
2022-08-14T01:27:56.658Z,16.41
2022-08-14T01:28:57.006Z,16.41
2022-08-14T01:29:58.860Z,16.40
2022-08-14T01:30:40.156Z,16.41
2022-08-14T01:31:40.097Z,16.39
2022-08-14T01:32:42.833Z,16.39
2022-08-14T01:34:07.429Z,16.28
2022-08-14T01:35:21.220Z,16.34
2022-08-14T01:36:05.700Z,16.26
2022-08-14T01:36:39.902Z,16.18
2022-08-14T01:37:44.225Z,16.22
2022-08-14T01:38:39.803Z,16.10
2022-08-14T01:39:39.818Z,16.16
2022-08-14T01:40:41.946Z,16.06
2022-08-14T01:41:39.680Z,16.08
2022-08-14T01:42:39.631Z,16.00
2022-08-14T01:43:39.590Z,16.02
2022-08-14T01:44:41.195Z,16.00
2022-08-14T01:45:40.197Z,15.94
2022-08-14T01:46:39.462Z,15.99
2022-08-14T01:47:39.420Z,16.03
2022-08-14T01:48:39.380Z,15.96
2022-08-14T01:49:40.507Z,15.99
2022-08-14T01:50:39.312Z,15.99
2022-08-14T01:51:39.254Z,15.94
2022-08-14T01:52:58.803Z,15.94
2022-08-14T01:53:39.168Z,15.92
2022-08-14T01:54:39.126Z,15.91
2022-08-14T01:55:39.084Z,15.88
2022-08-14T01:56:39.511Z,15.87
2022-08-14T01:58:00.510Z,15.85
2022-08-14T01:58:57.433Z,15.87
2022-08-14T01:59:38.918Z,15.88
2022-08-14T02:00:38.893Z,15.87
2022-08-14T02:01:41.831Z,15.90
2022-08-14T02:02:38.787Z,15.85
2022-08-14T02:03:40.122Z,15.85
2022-08-14T02:04:54.754Z,15.87
2022-08-14T02:05:39.017Z,15.72
2022-08-14T02:06:38.620Z,15.69
2022-08-14T02:07:55.742Z,15.72
2022-08-14T02:08:52.679Z,15.69
2022-08-14T02:09:38.494Z,15.72
2022-08-14T02:10:46.839Z,15.73
2022-08-14T02:11:38.408Z,15.72
2022-08-14T02:12:38.364Z,15.75
2022-08-14T02:13:38.323Z,15.65
2022-08-14T02:14:38.286Z,15.62
2022-08-14T02:15:38.240Z,15.65
2022-08-14T02:16:38.209Z,15.62
2022-08-14T02:17:38.153Z,15.69
2022-08-14T02:18:38.122Z,15.62
2022-08-14T02:19:38.069Z,15.66
2022-08-14T02:20:38.025Z,15.62
2022-08-14T02:21:43.378Z,15.60
2022-08-14T02:22:47.679Z,15.62
2022-08-14T02:23:37.899Z,15.57
2022-08-14T02:24:39.827Z,15.54
2022-08-14T02:25:37.815Z,15.51
2022-08-14T02:26:58.399Z,15.57
2022-08-14T02:28:23.040Z,15.57
2022-08-14T02:28:56.677Z,15.51
2022-08-14T02:29:59.283Z,15.41
2022-08-14T02:30:38.220Z,15.45
2022-08-14T02:31:42.437Z,15.36
2022-08-14T02:32:37.593Z,15.35
2022-08-14T02:33:37.470Z,15.35
2022-08-14T02:34:37.433Z,15.27
2022-08-14T02:35:40.571Z,15.25
2022-08-14T02:37:02.584Z,15.26
2022-08-14T02:37:37.442Z,15.26
2022-08-14T02:38:37.257Z,15.26
2022-08-14T02:39:37.471Z,15.19
2022-08-14T02:40:37.172Z,15.18
2022-08-14T02:41:39.954Z,15.18
2022-08-14T02:42:37.671Z,15.22
2022-08-14T02:43:46.287Z,15.23
2022-08-14T02:44:39.489Z,15.22
2022-08-14T02:45:38.671Z,15.19
2022-08-14T02:46:36.915Z,15.26
2022-08-14T02:47:38.842Z,15.25
2022-08-14T02:49:02.726Z,15.23
2022-08-14T02:49:36.793Z,15.27
2022-08-14T02:50:36.748Z,15.22
2022-08-14T02:51:37.024Z,15.25
2022-08-14T02:52:57.787Z,15.17
2022-08-14T02:53:37.441Z,15.19
2022-08-14T02:54:36.593Z,15.23
2022-08-14T02:55:36.533Z,15.22
2022-08-14T02:57:16.012Z,15.25
2022-08-14T02:57:40.489Z,15.19
2022-08-14T02:58:37.201Z,15.29
2022-08-14T02:59:36.363Z,15.25
2022-08-14T03:00:40.103Z,15.19
2022-08-14T03:01:43.255Z,15.19
2022-08-14T03:02:56.363Z,15.23
2022-08-14T03:03:38.755Z,15.25
2022-08-14T03:04:36.153Z,15.22
2022-08-14T03:05:36.936Z,15.19
2022-08-14T03:06:57.564Z,15.17
2022-08-14T03:07:36.020Z,15.15
2022-08-14T03:08:35.979Z,15.12
2022-08-14T03:10:25.028Z,15.04
2022-08-14T03:10:35.891Z,14.96
2022-08-14T03:11:35.865Z,14.97
2022-08-14T03:12:35.810Z,14.97
2022-08-14T03:13:35.766Z,14.96
2022-08-14T03:14:35.721Z,14.92
2022-08-14T03:15:35.677Z,14.93
2022-08-14T03:16:35.653Z,15.04
2022-08-14T03:17:41.236Z,14.94
2022-08-14T03:18:35.555Z,14.92
2022-08-14T03:19:35.512Z,14.94
2022-08-14T03:20:35.464Z,14.96
2022-08-14T03:21:35.434Z,15.05
2022-08-14T03:22:35.396Z,15.00
2022-08-14T03:23:36.297Z,14.93
2022-08-14T03:24:35.296Z,14.97
2022-08-14T03:25:37.821Z,14.87
2022-08-14T03:26:35.225Z,14.92
2022-08-14T03:27:48.206Z,14.97
2022-08-14T03:28:36.614Z,14.90
2022-08-14T03:29:35.079Z,14.86
2022-08-14T03:30:39.834Z,14.89
2022-08-14T03:31:35.005Z,14.90
2022-08-14T03:32:34.950Z,14.96
2022-08-14T03:33:38.324Z,15.00
2022-08-14T03:34:48.063Z,14.96
2022-08-14T03:35:40.385Z,14.86
2022-08-14T03:37:28.796Z,14.87
2022-08-14T03:39:06.368Z,14.93
2022-08-14T03:39:13.037Z,14.89
2022-08-14T03:39:34.671Z,14.90
2022-08-14T03:40:34.608Z,14.89
2022-08-14T03:41:34.569Z,14.90
2022-08-14T03:42:36.678Z,14.93
2022-08-14T03:43:34.482Z,14.93
2022-08-14T03:45:18.475Z,14.90
2022-08-14T03:45:35.485Z,14.96
2022-08-14T03:46:38.810Z,14.86
2022-08-14T03:47:55.712Z,14.82
2022-08-14T03:48:40.355Z,14.90
2022-08-14T03:49:34.224Z,14.90
2022-08-14T03:50:34.185Z,14.96
2022-08-14T03:51:34.142Z,14.93
2022-08-14T03:52:40.505Z,14.93
2022-08-14T03:53:34.954Z,14.97
2022-08-14T03:54:34.015Z,14.97
2022-08-14T03:55:33.969Z,14.90
2022-08-14T03:56:33.924Z,14.94
2022-08-14T03:57:37.212Z,15.00
2022-08-14T03:58:35.355Z,15.04
2022-08-14T03:59:33.810Z,14.94
2022-08-14T04:00:43.317Z,14.89
2022-08-14T04:01:41.442Z,14.96
2022-08-14T04:02:37.339Z,14.90
2022-08-14T04:03:34.468Z,14.94
2022-08-14T04:04:33.768Z,14.90
2022-08-14T04:05:38.216Z,14.96
2022-08-14T04:06:33.496Z,14.86
2022-08-14T04:07:36.092Z,14.94
2022-08-14T04:08:33.441Z,14.92
2022-08-14T04:09:33.369Z,14.89
2022-08-14T04:10:33.341Z,14.89
2022-08-14T04:11:33.285Z,14.96
2022-08-14T04:12:33.242Z,14.92
2022-08-14T04:13:33.803Z,14.93
2022-08-14T04:14:33.179Z,14.90
2022-08-14T04:15:56.293Z,14.93
2022-08-14T04:16:33.076Z,14.90
2022-08-14T04:17:33.027Z,14.92
2022-08-14T04:18:33.835Z,14.96
2022-08-14T04:19:36.363Z,15.02
2022-08-14T04:20:32.925Z,14.96
2022-08-14T04:21:40.025Z,14.99
2022-08-14T04:22:32.815Z,15.07
2022-08-14T04:23:33.415Z,14.97
2022-08-14T04:24:38.943Z,14.92
2022-08-14T04:25:32.685Z,15.05
2022-08-14T04:26:43.270Z,14.90
2022-08-14T04:27:32.603Z,14.86
2022-08-14T04:29:09.145Z,14.89
2022-08-14T04:29:32.648Z,14.90
2022-08-14T04:30:32.780Z,14.87
2022-08-14T04:32:58.017Z,14.77
2022-08-14T04:33:02.346Z,14.79
2022-08-14T04:33:32.389Z,14.81
2022-08-14T04:34:32.310Z,14.82
2022-08-14T04:35:56.097Z,14.87
2022-08-14T04:36:32.226Z,14.78
2022-08-14T04:37:32.177Z,14.82
2022-08-14T04:38:36.471Z,14.81
2022-08-14T04:39:32.124Z,14.81
2022-08-14T04:40:32.055Z,14.77
2022-08-14T04:41:32.186Z,14.81
2022-08-14T04:42:32.003Z,14.77
2022-08-14T04:43:38.709Z,14.77
2022-08-14T04:44:36.946Z,14.77
2022-08-14T04:45:31.831Z,14.74
2022-08-14T04:46:55.519Z,14.70
2022-08-14T04:47:31.758Z,14.62
2022-08-14T04:48:43.192Z,14.66
2022-08-14T04:49:31.663Z,14.61
2022-08-14T04:50:38.026Z,14.53
2022-08-14T04:51:37.449Z,14.56
2022-08-14T04:52:31.561Z,14.52
2022-08-14T04:53:34.921Z,14.58
2022-08-14T04:54:31.445Z,14.66
2022-08-14T04:55:31.405Z,14.58
2022-08-14T04:56:34.572Z,14.67
2022-08-14T04:57:31.314Z,14.71
2022-08-14T04:58:32.938Z,14.70
2022-08-14T04:59:31.231Z,14.66
2022-08-14T05:00:31.190Z,14.73
2022-08-14T05:01:39.609Z,14.71
2022-08-14T05:02:31.124Z,14.74
2022-08-14T05:03:31.064Z,14.77
2022-08-14T05:04:31.042Z,14.79
2022-08-14T05:05:32.329Z,14.81
2022-08-14T05:06:38.482Z,14.78
2022-08-14T05:07:46.465Z,14.90
2022-08-14T05:08:32.122Z,14.87
2022-08-14T05:09:30.830Z,14.86
2022-08-14T05:10:32.151Z,14.97
2022-08-14T05:11:30.721Z,14.96
2022-08-14T05:13:24.526Z,14.92
2022-08-14T05:13:38.368Z,14.93
2022-08-14T05:14:43.101Z,14.89
2022-08-14T05:15:32.162Z,15.05
2022-08-14T05:16:30.508Z,14.97
2022-08-14T05:17:43.572Z,14.96
2022-08-14T05:19:17.239Z,14.99
2022-08-14T05:19:31.957Z,15.07
2022-08-14T05:21:04.547Z,15.07
2022-08-14T05:22:00.606Z,15.14
2022-08-14T05:22:30.249Z,15.11
2022-08-14T05:23:30.202Z,15.12
2022-08-14T05:24:30.161Z,15.19
2022-08-14T05:25:30.715Z,15.27
2022-08-14T05:26:30.089Z,15.27
2022-08-14T05:27:30.987Z,15.23
2022-08-14T05:28:29.993Z,15.33
2022-08-14T05:29:29.951Z,15.35
2022-08-14T05:30:29.909Z,15.39
2022-08-14T05:31:39.338Z,15.36
2022-08-14T05:32:29.826Z,15.41
2022-08-14T05:33:30.134Z,15.43
2022-08-14T05:34:31.646Z,15.50
2022-08-14T05:35:29.705Z,15.60
2022-08-14T05:36:29.649Z,15.63
2022-08-14T05:37:30.107Z,15.54
2022-08-14T05:38:31.180Z,15.63
2022-08-14T05:39:29.558Z,15.69
2022-08-14T05:40:29.498Z,15.78
2022-08-14T05:41:52.914Z,15.76
2022-08-14T05:42:32.102Z,15.80
2022-08-14T05:43:40.879Z,15.87
2022-08-14T05:44:30.884Z,15.91
2022-08-14T05:45:29.271Z,15.88
2022-08-14T05:46:29.226Z,15.87
2022-08-14T05:47:33.901Z,15.90
2022-08-14T05:48:33.445Z,15.92
2022-08-14T05:49:33.242Z,16.03
2022-08-14T05:50:29.251Z,16.00
2022-08-14T05:51:29.045Z,15.98
2022-08-14T05:52:39.048Z,16.13
2022-08-14T05:53:28.926Z,16.16
2022-08-14T05:54:35.275Z,16.10
2022-08-14T05:55:28.846Z,16.18
2022-08-14T05:56:29.166Z,16.31
2022-08-14T05:57:28.793Z,16.29
2022-08-14T05:58:33.817Z,16.40
2022-08-14T05:59:34.990Z,16.31
2022-08-14T06:03:47.740Z,16.46
2022-08-14T06:04:47.370Z,16.46
2022-08-14T06:05:47.367Z,16.43
2022-08-14T06:06:47.276Z,16.49
2022-08-14T06:07:47.450Z,16.49
2022-08-14T06:08:47.461Z,16.47
2022-08-14T06:09:51.099Z,16.58
2022-08-14T06:10:47.267Z,16.58
2022-08-14T06:11:49.864Z,16.61
2022-08-14T06:12:56.727Z,16.59
2022-08-14T06:13:46.970Z,16.62
2022-08-14T06:14:47.006Z,16.72
2022-08-14T06:15:47.060Z,16.66
2022-08-14T06:16:47.013Z,16.79
2022-08-14T06:17:47.131Z,16.76
2022-08-14T06:18:46.769Z,16.80
2022-08-14T06:19:46.716Z,16.83
2022-08-14T06:20:46.834Z,16.94
2022-08-14T06:21:46.660Z,16.97
2022-08-14T06:22:46.647Z,17.05
2022-08-14T06:23:48.941Z,17.14
2022-08-14T06:24:46.816Z,17.17
2022-08-14T06:25:52.729Z,17.23
2022-08-14T06:26:54.233Z,17.32
2022-08-14T06:27:46.379Z,17.41
2022-08-14T06:28:47.609Z,17.52
2022-08-14T06:29:46.298Z,17.59
2022-08-14T06:30:47.291Z,17.71
2022-08-14T06:32:00.145Z,17.76
2022-08-14T06:32:46.407Z,17.90
2022-08-14T06:35:04.644Z,17.98
2022-08-14T06:35:09.738Z,18.05
2022-08-14T06:35:46.667Z,18.23
2022-08-14T06:36:46.302Z,18.34
2022-08-14T06:37:46.931Z,18.36
2022-08-14T06:38:45.921Z,18.37
2022-08-14T06:39:46.141Z,18.58
2022-08-14T06:40:45.981Z,18.58
2022-08-14T06:41:58.623Z,18.64
2022-08-14T06:42:47.294Z,18.76
2022-08-14T06:43:45.873Z,18.83
2022-08-14T06:44:45.670Z,18.94
2022-08-14T06:45:53.942Z,18.97
2022-08-14T06:46:49.425Z,19.08
2022-08-14T06:47:45.700Z,19.16
2022-08-14T06:48:45.510Z,19.17
2022-08-14T06:49:56.061Z,19.34
2022-08-14T06:50:45.447Z,19.38
2022-08-14T06:51:45.408Z,19.47
2022-08-14T06:52:50.391Z,19.55
2022-08-14T06:53:45.565Z,19.62
2022-08-14T06:54:45.274Z,19.66
2022-08-14T06:55:57.902Z,19.74
2022-08-14T06:56:54.227Z,19.82
2022-08-14T06:57:45.410Z,19.94
2022-08-14T06:58:45.331Z,19.93
2022-08-14T06:59:45.073Z,20.04
2022-08-14T07:00:45.175Z,20.10
2022-08-14T07:01:44.995Z,20.19
2022-08-14T07:02:45.071Z,20.29
2022-08-14T07:03:44.919Z,20.34
2022-08-14T07:04:46.021Z,20.32
2022-08-14T07:05:55.819Z,20.40
2022-08-14T07:06:45.632Z,20.48
2022-08-14T07:07:45.023Z,20.40
2022-08-14T07:08:44.828Z,20.58
2022-08-14T07:09:50.579Z,20.68
2022-08-14T07:10:44.845Z,20.73
2022-08-14T07:11:44.580Z,20.82
2022-08-14T07:13:01.128Z,20.90
2022-08-14T07:13:44.496Z,21.00
2022-08-14T07:14:44.457Z,21.10
2022-08-14T07:15:44.676Z,21.19
2022-08-14T07:16:44.377Z,21.29
2022-08-14T07:17:44.478Z,21.38
2022-08-14T07:18:44.755Z,21.58
2022-08-14T07:19:44.253Z,21.65
2022-08-14T07:20:44.204Z,21.54
2022-08-14T07:21:44.202Z,21.66
2022-08-14T07:22:49.987Z,21.75
2022-08-14T07:23:44.389Z,21.88
2022-08-14T07:24:44.219Z,21.91
2022-08-14T07:25:44.344Z,22.07
2022-08-14T07:26:44.135Z,22.21
2022-08-14T07:27:43.986Z,22.22
2022-08-14T07:28:44.175Z,22.41
2022-08-14T07:29:43.851Z,22.49
2022-08-14T07:30:50.915Z,22.41
2022-08-14T07:31:43.768Z,22.49
2022-08-14T07:32:52.056Z,22.47
2022-08-14T07:33:45.555Z,22.53
2022-08-14T07:34:43.650Z,22.58
2022-08-14T07:35:58.238Z,22.73
2022-08-14T07:36:58.082Z,22.91
2022-08-14T07:37:43.535Z,22.84
2022-08-14T07:38:43.813Z,22.91
2022-08-14T07:39:44.120Z,23.07
2022-08-14T07:40:43.621Z,23.18
2022-08-14T07:41:43.675Z,23.26
2022-08-14T07:42:43.513Z,23.29
2022-08-14T07:43:44.164Z,23.36
2022-08-14T07:44:46.233Z,23.42
2022-08-14T07:45:43.454Z,23.39
2022-08-14T07:46:43.179Z,23.49
2022-08-14T07:47:43.154Z,23.34
2022-08-14T07:48:43.104Z,23.45
2022-08-14T07:49:43.543Z,23.55
2022-08-14T07:50:43.027Z,23.66
2022-08-14T07:51:43.185Z,23.74
2022-08-14T07:52:43.117Z,23.79
2022-08-14T07:53:42.911Z,23.82
2022-08-14T07:54:43.003Z,23.85
2022-08-14T07:55:43.017Z,24.04
2022-08-14T07:56:48.338Z,24.00
2022-08-14T07:57:43.028Z,24.06
2022-08-14T07:58:51.610Z,24.07
2022-08-14T07:59:44.535Z,24.06
2022-08-14T08:00:42.843Z,24.09
2022-08-14T08:01:51.105Z,24.13
2022-08-14T08:02:42.599Z,24.26
2022-08-14T08:03:42.891Z,24.37
2022-08-14T08:04:42.485Z,24.44
2022-08-14T08:05:42.576Z,24.58
2022-08-14T08:06:42.410Z,24.55
2022-08-14T08:07:42.484Z,24.58
2022-08-14T08:08:42.365Z,24.66
2022-08-14T08:09:45.915Z,24.71
2022-08-14T08:10:57.101Z,24.88
2022-08-14T08:11:42.238Z,24.97
2022-08-14T08:12:42.522Z,25.03
2022-08-14T08:13:42.140Z,25.09
2022-08-14T08:14:56.037Z,25.31
2022-08-14T08:15:42.064Z,25.31
2022-08-14T08:16:42.029Z,25.29
2022-08-14T08:17:42.675Z,25.51
2022-08-14T08:18:41.960Z,25.77
2022-08-14T08:19:42.370Z,25.85
2022-08-14T08:20:41.875Z,26.24
2022-08-14T08:21:43.902Z,26.81
2022-08-14T08:22:43.354Z,27.29
2022-08-14T08:23:50.989Z,27.97
2022-08-14T08:24:41.814Z,28.57
2022-08-14T08:25:41.806Z,29.22
2022-08-14T08:26:41.657Z,29.77
2022-08-14T08:27:44.582Z,30.26
2022-08-14T08:28:41.581Z,30.85
2022-08-14T08:29:41.625Z,31.18
2022-08-14T08:30:49.251Z,31.69
2022-08-14T08:31:43.160Z,32.04
2022-08-14T08:32:42.989Z,32.44
2022-08-14T08:33:41.448Z,32.66
2022-08-14T08:34:41.355Z,32.85
2022-08-14T08:35:47.055Z,33.15
2022-08-14T08:36:41.302Z,33.32
2022-08-14T08:37:43.664Z,33.40
2022-08-14T08:39:14.880Z,33.48
2022-08-14T08:40:01.454Z,33.65
2022-08-14T08:40:42.381Z,33.72
2022-08-14T08:41:41.298Z,33.75
2022-08-14T08:42:44.852Z,33.66
2022-08-14T08:43:46.170Z,33.63
2022-08-14T08:44:41.124Z,33.76
2022-08-14T08:45:40.971Z,33.91
2022-08-14T08:46:41.147Z,34.18
2022-08-14T08:47:40.895Z,34.48
2022-08-14T08:48:50.132Z,34.65
2022-08-14T08:49:42.338Z,34.98
2022-08-14T08:50:42.639Z,35.04
2022-08-14T08:51:42.935Z,35.23
2022-08-14T08:52:41.029Z,35.32
2022-08-14T08:53:40.874Z,35.42
2022-08-14T08:54:40.677Z,35.54
2022-08-14T08:55:40.818Z,35.57
2022-08-14T08:56:40.656Z,35.59
2022-08-14T08:57:40.698Z,35.59
2022-08-14T08:58:40.523Z,35.60
2022-08-14T08:59:42.141Z,35.71
2022-08-14T09:00:40.506Z,35.72
2022-08-14T09:01:40.425Z,35.76
2022-08-14T09:02:40.423Z,35.81
2022-08-14T09:03:41.076Z,35.94
2022-08-14T09:04:45.416Z,35.87
2022-08-14T09:05:40.290Z,35.86
2022-08-14T09:07:00.118Z,35.66
2022-08-14T09:07:40.226Z,35.61
2022-08-14T09:08:40.236Z,35.57
2022-08-14T09:09:54.215Z,35.61
2022-08-14T09:10:40.212Z,35.60
2022-08-14T09:11:40.088Z,35.64
2022-08-14T09:12:40.294Z,35.90
2022-08-14T09:13:40.041Z,35.90
2022-08-14T09:14:40.252Z,35.93
2022-08-14T09:15:42.663Z,36.06
2022-08-14T09:16:40.019Z,36.20
2022-08-14T09:17:41.200Z,36.38
2022-08-14T09:18:39.872Z,36.59
2022-08-14T09:19:40.088Z,36.89
2022-08-14T09:20:39.845Z,36.88
2022-08-14T09:21:39.781Z,37.06
2022-08-14T09:22:47.461Z,37.23
2022-08-14T09:24:26.799Z,37.36
2022-08-14T09:24:44.022Z,37.54
2022-08-14T09:25:59.633Z,37.53
2022-08-14T09:26:49.552Z,37.58
2022-08-14T09:27:39.852Z,37.57
2022-08-14T09:28:39.550Z,37.40
2022-08-14T09:29:39.524Z,37.44
2022-08-14T09:30:39.489Z,37.45
2022-08-14T09:31:42.931Z,37.37
2022-08-14T09:33:09.287Z,37.31
2022-08-14T09:33:43.045Z,37.11
2022-08-14T09:34:39.368Z,37.15
2022-08-14T09:35:39.341Z,37.06
2022-08-14T09:36:39.307Z,37.00
2022-08-14T09:37:39.289Z,37.10
2022-08-14T09:38:40.576Z,37.14
2022-08-14T09:39:39.243Z,37.04
2022-08-14T09:40:39.186Z,37.01
2022-08-14T09:42:17.332Z,37.07
2022-08-14T09:42:45.251Z,37.07
2022-08-14T09:43:39.112Z,37.04
2022-08-14T09:44:39.089Z,37.10
2022-08-14T09:45:39.989Z,36.94
2022-08-14T09:46:39.006Z,37.22
2022-08-14T09:47:38.976Z,37.21
2022-08-14T09:48:38.945Z,37.28
2022-08-14T09:49:40.603Z,37.33
2022-08-14T09:50:38.903Z,37.37
2022-08-14T09:51:44.991Z,37.07
2022-08-14T09:52:38.825Z,37.04
2022-08-14T09:54:17.725Z,36.72
2022-08-14T09:54:38.763Z,36.72
2022-08-14T09:55:41.391Z,36.85
2022-08-14T09:56:38.731Z,36.81
2022-08-14T09:57:38.679Z,36.92
2022-08-14T09:58:38.647Z,36.92
2022-08-14T09:59:38.622Z,36.87
2022-08-14T10:00:38.583Z,36.91
2022-08-14T10:01:38.561Z,36.85
2022-08-14T10:02:38.590Z,36.89
2022-08-14T10:03:38.495Z,36.96
2022-08-14T10:04:42.285Z,36.99
2022-08-14T10:05:39.388Z,37.06
2022-08-14T10:06:38.404Z,37.26
2022-08-14T10:07:41.168Z,37.29
2022-08-14T10:08:38.373Z,37.56
2022-08-14T10:09:39.361Z,37.60
2022-08-14T10:10:38.288Z,37.61
2022-08-14T10:11:38.261Z,37.83
2022-08-14T10:12:38.232Z,37.85
2022-08-14T10:13:52.767Z,37.94
2022-08-14T10:14:38.192Z,37.68
2022-08-14T10:15:38.146Z,37.66
2022-08-14T10:16:38.120Z,37.83
2022-08-14T10:17:39.000Z,37.98
2022-08-14T10:18:38.058Z,38.25
2022-08-14T10:19:38.035Z,38.46
2022-08-14T10:20:40.197Z,38.50
2022-08-14T10:21:38.778Z,38.44
2022-08-14T10:23:13.222Z,38.57
2022-08-14T10:23:37.912Z,38.75
2022-08-14T10:24:37.891Z,38.54
2022-08-14T10:25:37.856Z,38.36
2022-08-14T10:26:37.846Z,38.54
2022-08-14T10:27:37.816Z,38.46
2022-08-14T10:28:51.429Z,38.25
2022-08-14T10:29:37.744Z,37.94
2022-08-14T10:30:37.719Z,37.78
2022-08-14T10:31:44.758Z,37.61
2022-08-14T10:32:41.929Z,38.00
2022-08-14T10:33:37.629Z,38.31
2022-08-14T10:34:38.693Z,38.72
2022-08-14T10:35:37.578Z,38.84
2022-08-14T10:36:40.977Z,38.76
2022-08-14T10:37:37.513Z,38.60
2022-08-14T10:38:37.491Z,38.70
2022-08-14T10:39:37.484Z,38.60
2022-08-14T10:40:44.197Z,38.50
2022-08-14T10:41:46.695Z,38.51
2022-08-14T10:42:37.379Z,38.38
2022-08-14T10:43:37.349Z,38.41
2022-08-14T10:44:37.324Z,38.04
2022-08-14T10:45:46.348Z,37.83
2022-08-14T10:47:39.943Z,37.60
2022-08-14T10:48:06.954Z,37.15
2022-08-14T10:48:44.876Z,37.06
2022-08-14T10:49:37.185Z,37.03
2022-08-14T10:50:37.155Z,36.67
2022-08-14T10:51:39.857Z,36.35
2022-08-14T10:52:37.098Z,36.33
2022-08-14T10:53:37.085Z,36.17
2022-08-14T10:54:40.009Z,35.74
2022-08-14T10:55:38.384Z,35.68
2022-08-14T10:56:36.981Z,35.19
2022-08-14T10:57:36.950Z,35.12
2022-08-14T10:58:36.942Z,35.34
2022-08-14T10:59:38.179Z,34.94
2022-08-14T11:00:36.863Z,34.96
2022-08-14T11:01:38.413Z,34.97
2022-08-14T11:02:50.244Z,34.65
2022-08-14T11:03:56.137Z,34.33
2022-08-14T11:04:37.610Z,34.14
2022-08-14T11:05:36.715Z,34.04
2022-08-14T11:06:36.700Z,33.85
2022-08-14T11:07:36.649Z,33.55
2022-08-14T11:08:36.619Z,33.23
2022-08-14T11:09:36.594Z,32.83
2022-08-14T11:10:36.561Z,32.81
2022-08-14T11:11:37.327Z,32.57
2022-08-14T11:12:40.556Z,32.66
2022-08-14T11:13:36.474Z,32.54
2022-08-14T11:14:36.437Z,32.67
2022-08-14T11:15:36.406Z,32.66
2022-08-14T11:16:38.241Z,32.60
2022-08-14T11:17:36.342Z,32.53
2022-08-14T11:18:40.001Z,32.54
2022-08-14T11:19:36.280Z,32.17
2022-08-14T11:20:36.250Z,32.09
2022-08-14T11:21:36.213Z,31.89
2022-08-14T11:22:52.764Z,31.73
2022-08-14T11:23:37.806Z,31.60
2022-08-14T11:24:50.517Z,31.87
2022-08-14T11:25:41.392Z,31.92
2022-08-14T11:26:36.168Z,32.02
2022-08-14T11:27:36.045Z,32.00
2022-08-14T11:28:47.381Z,32.02
2022-08-14T11:29:36.209Z,31.86
2022-08-14T11:30:52.322Z,31.72
2022-08-14T11:31:39.052Z,31.74
2022-08-14T11:32:35.874Z,31.77
2022-08-14T11:33:35.847Z,31.70
2022-08-14T11:34:35.791Z,31.70
2022-08-14T11:35:44.226Z,31.73
2022-08-14T11:37:09.529Z,31.70
2022-08-14T11:37:40.705Z,32.08
2022-08-14T11:38:35.664Z,32.26
2022-08-14T11:39:37.150Z,32.30
2022-08-14T11:40:35.595Z,32.53
2022-08-14T11:41:37.313Z,32.53
2022-08-14T11:42:57.621Z,32.57
2022-08-14T11:43:35.498Z,32.57
2022-08-14T11:44:45.642Z,32.53
2022-08-14T11:45:36.971Z,32.27
2022-08-14T11:46:37.438Z,32.09
2022-08-14T11:47:43.834Z,31.82
2022-08-14T11:49:02.082Z,31.60
2022-08-14T11:49:35.302Z,31.52
2022-08-14T11:50:37.294Z,31.29
2022-08-14T11:51:50.849Z,31.22
2022-08-14T11:52:35.218Z,31.05
2022-08-14T11:53:35.170Z,31.14
2022-08-14T11:54:35.373Z,31.04
2022-08-14T11:55:35.111Z,30.93
2022-08-14T11:56:35.087Z,30.81
2022-08-14T11:57:35.039Z,30.76
2022-08-14T11:58:35.016Z,30.96
2022-08-14T11:59:34.974Z,30.95
2022-08-14T12:00:39.521Z,30.95
2022-08-14T12:01:40.960Z,30.92
2022-08-14T12:03:01.213Z,30.89
2022-08-14T12:03:45.985Z,30.88
2022-08-14T12:04:34.840Z,30.96
2022-08-14T12:05:35.998Z,30.81
2022-08-14T12:06:35.916Z,30.73
2022-08-14T12:07:34.809Z,30.91
2022-08-14T12:08:34.676Z,30.93
2022-08-14T12:09:34.677Z,30.95
2022-08-14T12:10:37.250Z,31.05
2022-08-14T12:11:34.571Z,31.05
2022-08-14T12:12:35.704Z,30.70
2022-08-14T12:13:34.793Z,30.48
2022-08-14T12:14:35.705Z,30.35
2022-08-14T12:15:34.463Z,30.27
2022-08-14T12:16:34.430Z,30.24
2022-08-14T12:17:38.233Z,30.03
2022-08-14T12:18:34.339Z,30.03
2022-08-14T12:19:35.062Z,29.92
2022-08-14T12:20:34.271Z,30.02
2022-08-14T12:21:34.244Z,29.81
2022-08-14T12:22:34.218Z,29.79
2022-08-14T12:23:34.168Z,29.69
2022-08-14T12:24:36.618Z,29.77
2022-08-14T12:25:34.719Z,29.65
2022-08-14T12:26:40.612Z,29.59
2022-08-14T12:27:34.053Z,29.55
2022-08-14T12:29:00.072Z,29.58
2022-08-14T12:29:34.867Z,29.69
2022-08-14T12:30:39.820Z,29.62
2022-08-14T12:31:36.290Z,29.46
2022-08-14T12:32:33.860Z,29.30
2022-08-14T12:33:34.218Z,29.42
2022-08-14T12:34:33.817Z,29.34
2022-08-14T12:35:33.757Z,29.28
2022-08-14T12:36:33.726Z,29.52
2022-08-14T12:37:33.687Z,29.52
2022-08-14T12:38:33.656Z,29.52
2022-08-14T12:39:39.803Z,29.61
2022-08-14T12:40:33.598Z,29.86
2022-08-14T12:41:34.495Z,29.83
2022-08-14T12:42:34.028Z,29.89
2022-08-14T12:43:33.481Z,29.86
2022-08-14T12:44:33.443Z,29.96
2022-08-14T12:45:33.481Z,29.96
2022-08-14T12:46:33.380Z,30.14
2022-08-14T12:47:33.345Z,30.23
2022-08-14T12:48:33.311Z,29.99
2022-08-14T12:49:33.278Z,29.95
2022-08-14T12:50:33.237Z,30.29
2022-08-14T12:51:33.218Z,30.40
2022-08-14T12:52:43.112Z,30.38
2022-08-14T12:53:38.137Z,30.51
2022-08-14T12:54:33.130Z,30.58
2022-08-14T12:56:22.308Z,30.73